Ship Status Report: callsign NRPK

sailwx.info

Track history (hours):
 
Tides and Currents Weather Stations Pressure Air Temp Water Temp Dewpoint Dewpoint Depression Visibility Wind Speed Wind Dir Waves Ship Positions

Callsign NRPK (name unknown)

Last reported at 2014-Jul-31 19:33 UTC. Time now 2014-Jul-31 19:47 UTC.
Position N 36°53' W 076°21'.

AWS

Date/timePositionNaut miles runAvg speedWind from/ knotsBaromVisibWave heightAir tempDewpointWater temp
2014-Jul-31 19:33N 36°53' W 076°21'0 0.0
2014-Jul-31 18:30N 36°53' W 076°21'0 0.0
2014-Jul-31 17:30N 36°53' W 076°21'0 0.0
2014-Jul-31 16:14N 36°53' W 076°21'0 0.0
2014-Jul-31 14:19N 36°53' W 076°21'2 1.0
2014-Jul-31 12:24N 36°55' W 076°20'12 6.0
2014-Jul-31 10:24N 36°57' W 076°06'0 0.0
2014-Jul-31 08:32N 36°57' W 076°06'0 0.0
2014-Jul-31 06:09N 36°57' W 076°06'0 0.0
2014-Jul-31 05:06N 36°57' W 076°06'0 0.0
2014-Jul-31 04:33N 36°57' W 076°06'0 0.0
2014-Jul-31 03:27N 36°57' W 076°06'2 1.8
2014-Jul-31 02:32N 36°58' W 076°04'  
2014-Jul-28 14:30N 39°28' W 074°16'0 0.0
2014-Jul-28 13:34N 39°28' W 074°16'0 0.0
2014-Jul-28 12:33N 39°28' W 074°16'4 3.8
2014-Jul-28 11:28N 39°28' W 074°11'0 0.0
2014-Jul-28 10:22N 39°28' W 074°11'0 0.0
2014-Jul-28 09:31N 39°28' W 074°11'0 0.0
2014-Jul-28 08:25N 39°28' W 074°11'0 0.0
2014-Jul-28 07:31N 39°28' W 074°11'0 0.0
2014-Jul-28 06:25N 39°28' W 074°11'0 0.0
2014-Jul-28 05:22N 39°28' W 074°11'0 0.0
2014-Jul-28 04:28N 39°28' W 074°11'0 0.0
2014-Jul-28 03:28N 39°28' W 074°11'0 0.0
2014-Jul-28 02:28N 39°28' W 074°11'0 0.0
2014-Jul-28 01:28N 39°28' W 074°11'910.4
2014-Jul-28 00:33N 39°37' W 074°08'8 8.0
2014-Jul-27 23:33N 39°45' W 074°05'0 0.1
2014-Jul-27 22:33N 39°45' W 074°05'0 0.0
2014-Jul-27 21:33N 39°45' W 074°05'6 5.9
2014-Jul-27 20:34N 39°45' W 073°57'8 7.7
2014-Jul-27 19:28N 39°46' W 073°46'0 0.0
2014-Jul-27 18:31N 39°46' W 073°46'1 1.1
2014-Jul-27 17:31N 39°47' W 073°47'26 7.6
2014-Jul-27 14:03N 40°11' W 074°00'2013.4
2014-Jul-27 12:33N 39°52' W 073°55'1514.9
2014-Jul-27 11:33N 39°37' W 074°00'1615.6
2014-Jul-27 10:33N 39°24' W 074°11'13110.6
2014-Jul-26 22:08N 37°29' W 075°32'1015.0
2014-Jul-26 21:29N 37°20' W 075°36'1815.4
2014-Jul-26 20:21N 37°02' W 075°39'1113.3
2014-Jul-26 19:33N 36°57' W 075°50'1514.8
2014-Jul-26 18:31N 36°59' W 076°09'11 9.7
2014-Jul-26 17:24N 36°53' W 076°20'1 0.1
2014-Jul-26 12:29N 36°53' W 076°21'0 0.0
2014-Jul-26 11:14N 36°53' W 076°21'0 0.0
2014-Jul-26 06:29N 36°53' W 076°21'0 0.0
2014-Jul-26 03:07N 36°53' W 076°21'0 0.0
2014-Jul-26 02:32N 36°53' W 076°21'0 0.0
2014-Jul-26 01:26N 36°53' W 076°21'0 0.0
2014-Jul-25 23:29N 36°53' W 076°21'0 0.0
2014-Jul-25 22:05N 36°53' W 076°21'0 0.0
2014-Jul-25 19:17N 36°53' W 076°21'0 0.0
2014-Jul-25 17:14N 36°53' W 076°21'0 0.0
2014-Jul-25 16:11N 36°53' W 076°21'0 0.0
2014-Jul-25 15:08N 36°53' W 076°21'1 1.5
2014-Jul-25 14:32N 36°53' W 076°20'9 8.8
2014-Jul-25 13:29N 36°60' W 076°12'2 1.8
2014-Jul-25 12:22N 37°00' W 076°09'7 8.3
2014-Jul-25 11:32N 36°57' W 076°02'  
Track history (hours):
 
Tides and Currents Weather Stations Pressure Air Temp Water Temp Dewpoint Dewpoint Depression Visibility Wind Speed Wind Dir Waves Ship Positions

Callsign NRPK (name unknown)

Last reported at 2014-Jul-31 19:33 UTC. Time now 2014-Jul-31 19:47 UTC.
Position N 36°53' W 076°21'.

AWS

Date/timePositionNaut miles runAvg speedWind from/ knotsBaromVisibWave heightAir tempDewpointWater temp
2014-Jul-31 19:33N 36°53' W 076°21'0 0.0
2014-Jul-31 18:30N 36°53' W 076°21'0 0.0
2014-Jul-31 17:30N 36°53' W 076°21'0 0.0
2014-Jul-31 16:14N 36°53' W 076°21'0 0.0
2014-Jul-31 14:19N 36°53' W 076°21'2 1.0
2014-Jul-31 12:24N 36°55' W 076°20'12 6.0
2014-Jul-31 10:24N 36°57' W 076°06'0 0.0
2014-Jul-31 08:32N 36°57' W 076°06'0 0.0
2014-Jul-31 06:09N 36°57' W 076°06'0 0.0
2014-Jul-31 05:06N 36°57' W 076°06'0 0.0
2014-Jul-31 04:33N 36°57' W 076°06'0 0.0
2014-Jul-31 03:27N 36°57' W 076°06'2 1.8
2014-Jul-31 02:32N 36°58' W 076°04'  
2014-Jul-28 14:30N 39°28' W 074°16'0 0.0
2014-Jul-28 13:34N 39°28' W 074°16'0 0.0
2014-Jul-28 12:33N 39°28' W 074°16'4 3.8
2014-Jul-28 11:28N 39°28' W 074°11'0 0.0
2014-Jul-28 10:22N 39°28' W 074°11'0 0.0
2014-Jul-28 09:31N 39°28' W 074°11'0 0.0
2014-Jul-28 08:25N 39°28' W 074°11'0 0.0
2014-Jul-28 07:31N 39°28' W 074°11'0 0.0
2014-Jul-28 06:25N 39°28' W 074°11'0 0.0
2014-Jul-28 05:22N 39°28' W 074°11'0 0.0
2014-Jul-28 04:28N 39°28' W 074°11'0 0.0
2014-Jul-28 03:28N 39°28' W 074°11'0 0.0
2014-Jul-28 02:28N 39°28' W 074°11'0 0.0
2014-Jul-28 01:28N 39°28' W 074°11'910.4
2014-Jul-28 00:33N 39°37' W 074°08'8 8.0
2014-Jul-27 23:33N 39°45' W 074°05'0 0.1
2014-Jul-27 22:33N 39°45' W 074°05'0 0.0
2014-Jul-27 21:33N 39°45' W 074°05'6 5.9
2014-Jul-27 20:34N 39°45' W 073°57'8 7.7
2014-Jul-27 19:28N 39°46' W 073°46'0 0.0
2014-Jul-27 18:31N 39°46' W 073°46'1 1.1
2014-Jul-27 17:31N 39°47' W 073°47'26 7.6
2014-Jul-27 14:03N 40°11' W 074°00'2013.4
2014-Jul-27 12:33N 39°52' W 073°55'1514.9
2014-Jul-27 11:33N 39°37' W 074°00'1615.6
2014-Jul-27 10:33N 39°24' W 074°11'13110.6
2014-Jul-26 22:08N 37°29' W 075°32'1015.0
2014-Jul-26 21:29N 37°20' W 075°36'1815.4
2014-Jul-26 20:21N 37°02' W 075°39'1113.3
2014-Jul-26 19:33N 36°57' W 075°50'1514.8
2014-Jul-26 18:31N 36°59' W 076°09'11 9.7
2014-Jul-26 17:24N 36°53' W 076°20'1 0.1
2014-Jul-26 12:29N 36°53' W 076°21'0 0.0
2014-Jul-26 11:14N 36°53' W 076°21'0 0.0
2014-Jul-26 06:29N 36°53' W 076°21'0 0.0
2014-Jul-26 03:07N 36°53' W 076°21'0 0.0
2014-Jul-26 02:32N 36°53' W 076°21'0 0.0
2014-Jul-26 01:26N 36°53' W 076°21'0 0.0
2014-Jul-25 23:29N 36°53' W 076°21'0 0.0
2014-Jul-25 22:05N 36°53' W 076°21'0 0.0
2014-Jul-25 19:17N 36°53' W 076°21'0 0.0
2014-Jul-25 17:14N 36°53' W 076°21'0 0.0
2014-Jul-25 16:11N 36°53' W 076°21'0 0.0
2014-Jul-25 15:08N 36°53' W 076°21'1 1.5
2014-Jul-25 14:32N 36°53' W 076°20'9 8.8
2014-Jul-25 13:29N 36°60' W 076°12'2 1.8
2014-Jul-25 12:22N 37°00' W 076°09'7 8.3
2014-Jul-25 11:32N 36°57' W 076°02'  

Dump ship's entire track history